Terminal Aerodrome Forecast
Issued by NWS Wilmington, NC

Home | Current Version | Previous Version | Text Only | Print | Product List | Glossary On
Versions: 1 2 3 4 5 6 7 8 9 10 11 12 13 14 15 16 17 18 19 20 21
000
FTUS42 KILM 311720
TAFMYR
TAF
KMYR 311720Z 3118/0118 02005KT P6SM -RA SCT010 BKN100
     FM311900 13007KT P6SM VCSH SCT025 SCT100
      TEMPO 3119/3123 4SM SHRA BKN025
     FM010000 09004KT P6SM FEW020 BKN100
     FM010700 03003KT P6SM SCT008 BKN100
     FM011300 36005KT P6SM VCSH FEW020 BKN050=

USA.gov is the U.S. government's official web portal to all federal, state and local government web resources and services.